Terminal Aerodrome Forecast
Issued by NWS Twin Cities, MN

Home | Current Version | Previous Version | Graphics & Text | Print | Product List | Glossary On
Versions: 1 2 3 4 5 6 7 8 9 10 11 12 13 14 15 16
000
FTUS43 KMPX 262300
TAFEAU
TAF
KEAU 262325Z 2700/2724 01004KT P6SM OVC015
     FM270300 36006KT 4SM -SN BR SCT008 OVC012
     FM270500 36006KT 1SM -SN BR VV007
     FM271200 34008KT 2SM -SN BR BKN009
     FM271500 32007KT 5SM -SN BR OVC014
     FM271800 30009KT P6SM BKN018=

USA.gov is the U.S. government's official web portal to all federal, state and local government web resources and services.